Time;durP1;ratioP1;P1;durP2;ratioP2;P2;SDS_P1;SDS_P2;PMS_P1;PMS_P2;Temp;Humidity;BMP_temperature;BMP_pressure;BME280_temperature;BME280_humidity;BME280_pressure;Samples;Min_cycle;Max_cycle;Signal;HPM_P1;HPM_P2
2021/10/19 00:01:50;;;;;;;25.10;18.40;;;;;;;11.45;79.11;95902.78;5035250;28;20461;-86
2021/10/19 00:04:17;;;;;;;24.80;18.67;;;;;;;11.36;78.12;95903.44;5034942;28;20439;-85
2021/10/19 00:06:44;;;;;;;20.10;16.80;;;;;;;11.29;78.62;95904.84;5034991;28;20442;-86
2021/10/19 00:09:11;;;;;;;23.13;16.50;;;;;;;11.23;78.92;95900.84;5034376;28;20450;-85
2021/10/19 00:11:38;;;;;;;24.63;18.77;;;;;;;11.18;78.93;95897.69;5035226;28;20935;-85
2021/10/19 00:14:05;;;;;;;23.20;18.07;;;;;;;11.14;79.14;95907.59;5034823;28;20459;-86
2021/10/19 00:16:34;;;;;;;22.13;17.53;;;;;;;11.10;79.57;95902.66;5035060;28;20469;-86
2021/10/19 00:19:04;;;;;;;22.73;17.43;;;;;;;11.05;79.58;95904.78;5035307;28;21132;-86
2021/10/19 00:21:31;;;;;;;23.30;17.80;;;;;;;10.95;80.99;95909.81;5034930;28;20487;-86
2021/10/19 00:24:01;;;;;;;21.20;16.80;;;;;;;10.93;80.67;95906.47;5034645;28;20949;-86
2021/10/19 00:26:27;;;;;;;28.77;18.50;;;;;;;10.90;80.91;95908.47;5034635;28;20994;-86
2021/10/19 00:28:54;;;;;;;19.97;17.53;;;;;;;10.93;81.04;95914.34;5035152;28;20447;-85
2021/10/19 00:31:22;;;;;;;25.80;20.47;;;;;;;10.91;80.32;95903.09;4999848;28;20525;-86
2021/10/19 00:33:50;;;;;;;24.40;17.90;;;;;;;10.91;80.98;95908.34;5034887;28;20449;-86
2021/10/19 00:36:17;;;;;;;23.80;18.43;;;;;;;10.80;82.19;95903.88;5034703;28;20458;-86
2021/10/19 00:38:44;;;;;;;24.50;18.73;;;;;;;10.86;81.43;95910.47;5034633;28;20451;-86
2021/10/19 00:41:12;;;;;;;32.97;19.93;;;;;;;10.91;81.45;95908.34;5035052;28;20833;-85
2021/10/19 00:43:40;;;;;;;29.30;17.93;;;;;;;10.75;81.46;95902.50;5034771;28;20509;-86
2021/10/19 00:46:12;;;;;;;25.73;19.40;;;;;;;10.76;82.43;95906.81;5034569;28;20497;-86
2021/10/19 00:48:40;;;;;;;25.73;17.63;;;;;;;10.68;81.80;95909.09;5034641;28;20455;-86
2021/10/19 00:51:09;;;;;;;23.40;17.53;;;;;;;10.61;82.07;95906.06;5034303;28;20534;-85
2021/10/19 00:53:36;;;;;;;28.50;18.57;;;;;;;10.51;82.43;95905.88;5034878;28;20466;-85
2021/10/19 00:56:03;;;;;;;26.97;19.10;;;;;;;10.52;83.08;95910.16;5045526;28;20447;-86
2021/10/19 00:58:30;;;;;;;26.50;18.90;;;;;;;10.57;82.64;95911.63;5044974;28;20444;-85
2021/10/19 01:00:57;;;;;;;27.63;19.20;;;;;;;10.47;83.87;95907.03;5034324;28;20447;-86
2021/10/19 01:03:24;;;;;;;30.60;18.37;;;;;;;10.48;83.14;95898.22;5034698;28;20447;-86
2021/10/19 01:05:51;;;;;;;25.40;18.33;;;;;;;10.45;82.93;95910.69;4999421;28;20478;-86
2021/10/19 01:08:19;;;;;;;25.40;18.00;;;;;;;10.44;83.97;95909.88;5034021;28;20447;-85
2021/10/19 01:10:46;;;;;;;23.60;18.27;;;;;;;10.45;84.19;95911.53;5033699;28;20450;-86
2021/10/19 01:13:14;;;;;;;27.60;18.30;;;;;;;10.47;84.19;95908.81;5015592;28;20447;-86
2021/10/19 01:15:41;;;;;;;30.53;18.93;;;;;;;10.43;83.01;95907.34;4999047;28;20465;-86
2021/10/19 01:18:08;;;;;;;27.13;19.30;;;;;;;10.46;84.04;95910.59;5033754;28;20453;-85
2021/10/19 01:20:37;;;;;;;22.70;17.20;;;;;;;10.44;83.94;95912.50;5033787;28;20479;-86
2021/10/19 01:23:05;;;;;;;24.93;17.80;;;;;;;10.44;84.02;95907.25;5033837;28;20447;-85
2021/10/19 01:25:34;;;;;;;23.43;17.90;;;;;;;10.49;83.79;95906.91;5033858;28;20487;-86
2021/10/19 01:28:04;;;;;;;21.77;17.40;;;;;;;10.43;83.79;95908.19;5033628;28;20931;-86
2021/10/19 01:30:32;;;;;;;25.43;17.33;;;;;;;10.47;83.79;95904.41;5015145;28;20447;-86
2021/10/19 01:32:59;;;;;;;20.80;16.17;;;;;;;10.43;83.12;95902.94;5033886;28;20818;-86
2021/10/19 01:35:34;;;;;;;26.83;18.83;;;;;;;10.46;83.41;95909.75;5033432;28;20530;-86
2021/10/19 01:38:03;;;;;;;23.80;18.00;;;;;;;10.48;83.71;95911.31;5033229;28;20461;-86
2021/10/19 01:40:30;;;;;;;21.60;15.80;;;;;;;10.51;83.71;95911.13;5033434;28;20939;-85
2021/10/19 01:42:57;;;;;;;23.90;17.13;;;;;;;10.53;83.54;95908.38;4998811;28;20797;-86
2021/10/19 01:45:24;;;;;;;29.13;18.73;;;;;;;10.55;83.01;95912.59;5033631;28;20470;-86
2021/10/19 01:47:51;;;;;;;22.77;16.13;;;;;;;10.55;82.59;95909.97;5033926;28;20514;-86
2021/10/19 01:50:19;;;;;;;20.53;15.80;;;;;;;10.51;81.50;95916.38;5033487;28;20927;-86
2021/10/19 01:52:47;;;;;;;27.00;16.57;;;;;;;10.53;81.71;95914.47;5033352;28;20969;-85
2021/10/19 01:55:16;;;;;;;23.83;15.53;;;;;;;10.51;80.24;95920.78;5032918;28;20435;-86
2021/10/19 01:57:43;;;;;;;18.57;14.23;;;;;;;10.52;80.99;95918.03;5032871;28;20449;-86
2021/10/19 02:00:11;;;;;;;19.20;13.43;;;;;;;10.57;80.00;95930.84;5033026;28;20447;-86
2021/10/19 02:02:39;;;;;;;19.50;13.70;;;;;;;10.66;79.57;95929.38;4998090;28;20454;-85
2021/10/19 02:05:07;;;;;;;19.70;14.10;;;;;;;10.78;79.73;95933.78;5032893;28;20990;-86
2021/10/19 02:07:34;;;;;;;17.70;14.00;;;;;;;10.87;79.33;95938.41;4998487;28;20935;-86
2021/10/19 02:10:01;;;;;;;17.17;13.67;;;;;;;10.89;79.89;95930.41;5032669;28;20443;-86
2021/10/19 02:12:29;;;;;;;21.20;14.93;;;;;;;10.92;79.17;95933.66;5033026;28;20450;-86
2021/10/19 02:14:56;;;;;;;25.73;17.20;;;;;;;10.93;80.76;95934.50;5033300;28;20554;-86
2021/10/19 02:17:23;;;;;;;25.13;18.00;;;;;;;10.92;82.08;95932.84;5032828;28;20550;-85
2021/10/19 02:19:50;;;;;;;18.20;15.07;;;;;;;10.93;82.01;95930.09;5032667;28;20439;-85
2021/10/19 02:22:18;;;;;;;20.30;15.80;;;;;;;10.94;82.50;95938.81;5032710;28;20463;-86
2021/10/19 02:24:45;;;;;;;22.60;17.37;;;;;;;10.92;82.93;95938.06;5032721;28;21002;-86
2021/10/19 02:27:12;;;;;;;24.33;16.20;;;;;;;10.90;83.08;95935.56;5032653;28;20451;-86
2021/10/19 02:29:40;;;;;;;26.13;16.60;;;;;;;10.87;82.79;95938.41;4998056;28;20449;-86
2021/10/19 02:32:07;;;;;;;24.83;16.70;;;;;;;10.80;83.23;95932.75;5031798;28;20436;-86
2021/10/19 02:34:34;;;;;;;21.93;16.80;;;;;;;10.76;83.45;95931.28;5032813;28;20455;-85
2021/10/19 02:37:01;;;;;;;27.87;17.23;;;;;;;10.69;82.72;95930.00;5032414;28;20446;-85
2021/10/19 02:39:28;;;;;;;21.93;15.67;;;;;;;10.64;83.85;95937.34;5032531;28;20454;-86
2021/10/19 02:41:55;;;;;;;20.47;16.23;;;;;;;10.57;84.41;95937.88;5032879;28;20801;-86
2021/10/19 02:44:22;;;;;;;23.30;16.27;;;;;;;10.44;84.64;95943.13;5032519;28;20465;-85
2021/10/19 02:46:51;;;;;;;20.30;14.70;;;;;;;10.34;84.43;95937.66;5032119;28;20493;-85
2021/10/19 02:49:18;;;;;;;20.10;15.70;;;;;;;10.22;84.70;95930.59;5032127;28;20443;-85
2021/10/19 02:51:45;;;;;;;19.73;14.50;;;;;;;10.20;85.33;95937.72;5032153;28;20454;-85
2021/10/19 02:54:11;;;;;;;24.93;15.90;;;;;;;10.14;85.50;95944.22;5032169;28;20453;-85
2021/10/19 02:56:39;;;;;;;25.27;15.60;;;;;;;10.14;85.30;95943.38;5032621;28;20874;-86
2021/10/19 02:59:06;;;;;;;17.93;14.10;;;;;;;10.11;86.15;95951.41;5032349;28;20479;-85
2021/10/19 03:01:33;;;;;;;19.60;14.63;;;;;;;10.09;85.85;95948.88;5032346;28;20945;-86
2021/10/19 03:04:01;;;;;;;25.43;16.07;;;;;;;10.07;86.09;95948.16;5032166;28;20453;-86
2021/10/19 03:06:28;;;;;;;21.50;15.90;;;;;;;10.08;85.79;95955.06;5032183;28;20485;-86
2021/10/19 03:08:57;;;;;;;18.13;14.47;;;;;;;10.06;86.26;95956.97;5032220;28;20462;-85
2021/10/19 03:11:24;;;;;;;20.20;15.93;;;;;;;10.02;85.38;95959.88;5032381;28;20458;-85
2021/10/19 03:13:51;;;;;;;18.93;15.47;;;;;;;9.98;85.49;95964.50;5032197;28;20443;-86
2021/10/19 03:16:19;;;;;;;20.03;13.57;;;;;;;9.95;85.75;95959.47;5032188;28;20957;-85
2021/10/19 03:18:49;;;;;;;20.70;15.17;;;;;;;9.91;86.11;95964.06;5031990;28;20458;-85
2021/10/19 03:21:18;;;;;;;18.57;14.03;;;;;;;9.80;86.26;95968.31;5032456;28;20471;-85
2021/10/19 03:23:45;;;;;;;20.03;13.90;;;;;;;9.77;86.62;95966.72;5032142;28;20443;-85
2021/10/19 03:26:16;;;;;;;17.77;14.23;;;;;;;9.74;86.90;95966.91;5031862;28;20479;-85
2021/10/19 03:28:43;;;;;;;25.20;15.23;;;;;;;9.74;86.89;95966.06;5032288;28;20455;-85
2021/10/19 03:31:10;;;;;;;20.10;14.27;;;;;;;9.70;86.72;95973.31;5032226;28;20461;-85
2021/10/19 03:33:38;;;;;;;17.67;14.20;;;;;;;9.68;87.40;95962.06;5031941;28;20495;-82
2021/10/19 03:36:06;;;;;;;19.17;15.00;;;;;;;9.68;89.01;95954.22;5032727;28;20455;-79
2021/10/19 03:38:35;;;;;;;19.20;14.93;;;;;;;9.75;89.24;95965.13;5032817;28;20462;-80
2021/10/19 03:41:01;;;;;;;23.23;16.00;;;;;;;9.73;88.15;95960.00;5032650;28;20457;-84
2021/10/19 03:43:28;;;;;;;20.53;14.83;;;;;;;9.70;86.89;95959.34;5034010;28;20427;-84
2021/10/19 03:45:55;;;;;;;19.43;14.27;;;;;;;9.67;86.92;95963.03;5035970;28;20856;-86
2021/10/19 03:48:22;;;;;;;28.97;17.33;;;;;;;9.62;87.02;95955.47;5036407;28;20441;-84
2021/10/19 03:50:49;;;;;;;17.43;13.93;;;;;;;9.62;87.02;95965.94;5035944;28;20443;-84
2021/10/19 03:53:16;;;;;;;19.20;14.87;;;;;;;9.58;87.45;95968.84;5036626;28;20442;-84
2021/10/19 03:55:46;;;;;;;19.70;14.47;;;;;;;9.55;87.01;95963.81;5001755;28;20449;-84
2021/10/19 03:58:13;;;;;;;21.20;15.73;;;;;;;9.55;86.45;95966.44;5035783;28;20439;-84
2021/10/19 04:00:40;;;;;;;20.47;14.10;;;;;;;9.56;86.81;95962.88;5035964;28;20519;-84
2021/10/19 04:03:08;;;;;;;23.30;13.90;;;;;;;9.55;86.93;95972.50;5036025;28;20446;-84
2021/10/19 04:05:35;;;;;;;23.03;12.87;;;;;;;9.55;86.33;95966.44;5035858;28;21002;-85
2021/10/19 04:08:02;;;;;;;18.00;13.63;;;;;;;9.52;86.47;95967.44;5001657;28;21352;-85
2021/10/19 04:10:30;;;;;;;18.97;13.10;;;;;;;9.46;86.74;95978.31;5001777;28;20527;-84
2021/10/19 04:12:58;;;;;;;17.10;12.20;;;;;;;9.43;86.20;95973.28;5035891;28;20433;-84
2021/10/19 04:15:25;;;;;;;24.00;14.63;;;;;;;9.40;86.82;95983.94;5035651;28;20546;-85
2021/10/19 04:17:52;;;;;;;21.33;13.07;;;;;;;9.39;86.95;95992.75;5036213;28;20447;-84
2021/10/19 04:20:19;;;;;;;23.70;15.00;;;;;;;9.34;86.61;95991.34;5035765;28;20935;-85
2021/10/19 04:22:46;;;;;;;17.57;13.13;;;;;;;9.30;87.12;95983.69;5035369;28;20428;-84
2021/10/19 04:25:13;;;;;;;20.77;14.20;;;;;;;9.32;86.91;95991.44;5000908;28;20454;-84
2021/10/19 04:27:40;;;;;;;34.23;13.10;;;;;;;9.25;87.11;95985.75;5035156;28;20477;-84
2021/10/19 04:30:09;;;;;;;16.37;12.40;;;;;;;9.24;86.73;95989.28;5035599;28;20431;-85
2021/10/19 04:32:36;;;;;;;23.13;13.73;;;;;;;9.29;87.56;95989.88;5035538;28;20903;-84
2021/10/19 04:58:37;;;;;;;35.37;14.13;;;;;;;8.98;86.60;96019.72;5033828;28;20561;-85
2021/10/19 05:01:04;;;;;;;21.97;13.30;;;;;;;9.02;86.95;96015.13;5035870;28;20438;-86
2021/10/19 05:03:31;;;;;;;20.30;13.03;;;;;;;9.05;86.84;96024.56;5035099;28;20454;-84
2021/10/19 05:05:58;;;;;;;16.70;13.17;;;;;;;9.04;86.88;96031.56;5034841;28;21037;-83
2021/10/19 05:11:46;;;;;;;28.10;11.43;;;;;;;9.87;85.47;96040.38;5043553;28;20430;-85
2021/10/19 05:14:15;;;;;;;38.70;13.17;;;;;;;10.48;82.67;96042.53;5037445;28;20441;-86
2021/10/19 05:16:42;;;;;;;34.47;12.37;;;;;;;11.09;79.31;96048.91;5035595;28;20545;-87
2021/10/19 05:19:09;;;;;;;21.00;10.50;;;;;;;11.77;76.73;96055.56;5035350;28;20455;-87
2021/10/19 05:21:36;;;;;;;18.10;11.40;;;;;;;12.46;73.94;96074.34;5035200;28;20485;-87
2021/10/19 05:24:03;;;;;;;14.10;11.03;;;;;;;13.10;71.14;96070.38;5034762;28;20949;-86
2021/10/19 05:26:30;;;;;;;18.17;11.67;;;;;;;13.58;68.39;96083.38;5034573;28;20558;-86
2021/10/19 05:28:57;;;;;;;30.87;11.70;;;;;;;14.08;66.78;96076.78;5034984;28;20465;-86
2021/10/19 05:31:25;;;;;;;18.20;12.27;;;;;;;14.58;65.21;96077.19;5034947;28;20436;-86
2021/10/19 05:34:07;;;;;;;19.43;11.80;;;;;;;14.97;63.93;96083.63;5034285;28;20447;-85
2021/10/19 05:36:36;;;;;;;19.83;10.83;;;;;;;15.36;63.61;96087.38;5034520;28;20513;-86
2021/10/19 05:39:03;;;;;;;16.53;11.50;;;;;;;15.64;61.50;96085.06;5034940;28;20451;-86
2021/10/19 05:41:29;;;;;;;17.03;11.37;;;;;;;15.98;59.95;96097.06;5034798;28;20522;-86
2021/10/19 05:43:56;;;;;;;15.60;10.07;;;;;;;16.25;58.77;96095.59;4999826;28;20477;-86
2021/10/19 05:46:25;;;;;;;12.53;9.93;;;;;;;16.34;57.30;96092.97;5034225;28;20493;-86
2021/10/19 05:48:52;;;;;;;18.50;12.07;;;;;;;16.46;56.75;96095.50;5033416;28;20889;-86
2021/10/19 05:51:19;;;;;;;20.30;13.30;;;;;;;16.52;56.95;96095.81;5032959;28;20447;-86
2021/10/19 05:53:46;;;;;;;22.13;13.93;;;;;;;16.56;57.71;96102.50;5033618;28;20435;-86
2021/10/19 05:56:13;;;;;;;34.47;17.17;;;;;;;16.64;56.79;96105.31;5032907;28;20450;-86
2021/10/19 05:58:40;;;;;;;25.80;17.50;;;;;;;16.51;56.91;96109.19;5032953;28;20853;-86
2021/10/19 06:01:07;;;;;;;22.03;14.83;;;;;;;15.64;58.03;96104.41;5032706;28;20466;-86
2021/10/19 06:03:35;;;;;;;22.20;18.17;;;;;;;15.47;59.31;96119.03;5032867;28;20455;-86
2021/10/19 06:06:05;;;;;;;25.93;17.20;;;;;;;15.38;61.29;96108.41;5032364;28;20518;-86
2021/10/19 06:08:32;;;;;;;33.33;21.20;;;;;;;15.44;61.53;96111.38;5032944;28;20949;-85
2021/10/19 06:10:59;;;;;;;30.00;20.93;;;;;;;14.86;62.01;96118.88;5032766;28;20447;-86
2021/10/19 06:13:26;;;;;;;34.70;23.17;;;;;;;14.33;64.13;96109.97;5032968;28;20443;-85
2021/10/19 06:15:54;;;;;;;37.13;23.07;;;;;;;14.00;65.89;96118.78;5032505;28;20499;-85
2021/10/19 06:18:21;;;;;;;35.33;22.90;;;;;;;14.13;67.20;96122.13;5032880;28;20454;-85
2021/10/19 06:20:49;;;;;;;32.90;21.37;;;;;;;14.39;66.15;96119.22;5013793;28;20997;-86
2021/10/19 06:23:16;;;;;;;33.90;22.00;;;;;;;14.49;65.86;96122.84;5032548;28;20442;-85
2021/10/19 06:25:43;;;;;;;29.53;20.33;;;;;;;14.65;65.39;96125.91;5032457;28;20465;-85
2021/10/19 06:28:10;;;;;;;30.27;21.60;;;;;;;14.87;64.65;96125.84;5032041;28;20857;-86
2021/10/19 06:30:38;;;;;;;35.70;19.77;;;;;;;14.88;62.94;96138.06;5013854;28;20449;-86
2021/10/19 06:33:05;;;;;;;30.07;20.77;;;;;;;14.91;63.96;96123.78;5032350;28;20530;-86
2021/10/19 06:35:32;;;;;;;32.43;19.37;;;;;;;15.04;64.16;96132.38;5032731;28;20518;-85
2021/10/19 06:38:00;;;;;;;31.70;20.00;;;;;;;15.13;63.59;96133.41;5032173;28;20447;-86
2021/10/19 06:40:27;;;;;;;25.73;18.43;;;;;;;14.96;63.49;96136.59;5032178;28;20538;-85
2021/10/19 06:42:54;;;;;;;29.50;21.17;;;;;;;14.93;64.35;96139.50;5032063;28;20439;-85
2021/10/19 06:45:21;;;;;;;31.07;22.43;;;;;;;14.70;65.10;96131.66;5032368;28;20451;-84
2021/10/19 06:47:48;;;;;;;32.50;22.93;;;;;;;14.92;65.85;96137.81;4997098;28;20475;-85
2021/10/19 06:50:15;;;;;;;34.30;21.90;;;;;;;15.04;65.83;96134.19;5032188;28;20533;-85
2021/10/19 06:52:42;;;;;;;43.17;25.97;;;;;;;15.23;64.71;96133.47;5032349;28;20449;-85
2021/10/19 06:55:11;;;;;;;51.97;24.63;;;;;;;15.42;64.45;96137.13;5032078;28;20514;-85
2021/10/19 06:57:42;;;;;;;35.13;21.13;;;;;;;15.41;62.93;96139.88;5031943;28;20449;-85
2021/10/19 07:00:10;;;;;;;27.87;22.10;;;;;;;15.38;62.72;96135.69;5032019;28;20451;-85
2021/10/19 07:02:37;;;;;;;39.93;21.20;;;;;;;15.35;62.95;96140.41;5032235;28;20525;-85
2021/10/19 07:05:05;;;;;;;35.37;21.57;;;;;;;15.21;64.86;96143.34;5032065;28;20450;-85
2021/10/19 07:07:32;;;;;;;33.83;21.57;;;;;;;14.76;64.40;96144.38;5032080;28;20534;-85
2021/10/19 07:10:00;;;;;;;28.50;21.20;;;;;;;14.83;65.20;96145.56;5031803;28;20522;-85
2021/10/19 07:12:29;;;;;;;27.77;19.67;;;;;;;14.81;65.40;96144.00;5032277;28;20505;-85
2021/10/19 07:14:56;;;;;;;27.27;20.13;;;;;;;14.90;65.85;96142.41;5031799;28;20455;-85
2021/10/19 07:17:23;;;;;;;25.23;19.33;;;;;;;15.04;65.64;96140.31;5032340;28;20463;-85
2021/10/19 07:19:50;;;;;;;28.80;19.07;;;;;;;15.15;65.38;96144.69;5001018;28;20530;-85
2021/10/19 07:22:17;;;;;;;22.27;16.37;;;;;;;15.24;64.50;96143.94;5036249;28;21041;-85
2021/10/19 07:24:44;;;;;;;32.30;17.17;;;;;;;15.30;62.16;96139.94;5035944;28;20458;-85
2021/10/19 07:27:11;;;;;;;44.10;17.83;;;;;;;15.39;61.63;96142.66;5000713;28;20482;-85
2021/10/19 07:29:39;;;;;;;30.17;16.37;;;;;;;15.49;61.69;96148.00;5035848;28;20449;-85
2021/10/19 07:32:07;;;;;;;41.00;17.57;;;;;;;15.61;60.77;96144.38;5035999;28;20524;-85
2021/10/19 07:34:34;;;;;;;21.70;18.23;;;;;;;15.65;62.12;96142.31;5035848;28;20482;-85
2021/10/19 07:37:01;;;;;;;28.43;20.57;;;;;;;15.48;60.28;96136.59;5035590;28;20461;-86
2021/10/19 07:39:28;;;;;;;25.53;20.03;;;;;;;15.22;60.60;96145.88;5035643;28;21001;-85
2021/10/19 07:41:55;;;;;;;26.63;19.83;;;;;;;15.20;61.57;96137.22;5035745;28;20518;-86
2021/10/19 07:44:23;;;;;;;24.03;19.10;;;;;;;15.30;62.27;96139.94;5035303;28;20989;-85
2021/10/19 07:46:51;;;;;;;26.23;19.77;;;;;;;15.05;62.16;96139.34;5035383;28;20483;-86
2021/10/19 07:49:19;;;;;;;31.30;17.10;;;;;;;15.04;62.81;96137.66;5035730;28;20459;-86
2021/10/19 07:51:46;;;;;;;25.43;17.60;;;;;;;15.08;63.56;96135.63;5035553;28;20522;-86
2021/10/19 07:54:13;;;;;;;27.17;19.00;;;;;;;15.25;63.02;96132.38;5035196;28;21049;-86
2021/10/19 07:56:40;;;;;;;30.20;17.80;;;;;;;15.33;63.02;96129.97;5035276;28;20469;-85
2021/10/19 07:59:07;;;;;;;57.07;20.07;;;;;;;15.43;62.51;96125.56;5035129;28;20665;-86
2021/10/19 08:01:34;;;;;;;25.23;18.87;;;;;;;15.59;62.17;96133.06;5035070;28;20499;-86
2021/10/19 08:04:03;;;;;;;32.17;18.20;;;;;;;15.45;61.70;96136.84;5035310;28;20443;-86
2021/10/19 08:06:31;;;;;;;35.30;18.40;;;;;;;15.45;62.58;96126.28;5035205;28;20459;-86
2021/10/19 08:08:59;;;;;;;27.20;19.30;;;;;;;15.43;61.90;96130.84;5035054;28;20479;-86
2021/10/19 08:11:26;;;;;;;28.77;17.60;;;;;;;15.53;61.89;96122.13;5035145;28;20450;-86
2021/10/19 08:13:56;;;;;;;29.07;19.20;;;;;;;15.55;61.04;96120.19;5000206;28;20809;-86
2021/10/19 08:16:23;;;;;;;26.60;19.90;;;;;;;15.42;60.91;96120.41;5035024;28;20459;-86
2021/10/19 08:18:52;;;;;;;27.30;18.90;;;;;;;15.39;60.94;96121.50;5034687;28;21178;-86
2021/10/19 08:21:21;;;;;;;22.90;17.93;;;;;;;15.00;62.16;96125.66;5034839;28;20481;-85
2021/10/19 08:23:49;;;;;;;32.93;18.60;;;;;;;14.97;63.05;96125.06;5034673;28;20486;-86
2021/10/19 08:26:16;;;;;;;29.40;18.47;;;;;;;15.20;63.15;96131.94;5034802;28;20447;-86
2021/10/19 08:28:44;;;;;;;27.10;18.23;;;;;;;15.40;62.66;96122.34;5034859;28;20504;-85
2021/10/19 08:31:14;;;;;;;28.57;19.97;;;;;;;15.64;61.27;96124.75;5034653;28;20501;-86
2021/10/19 08:33:43;;;;;;;25.07;18.00;;;;;;;15.88;60.25;96129.72;5034854;28;20462;-86
2021/10/19 08:36:10;;;;;;;24.27;18.03;;;;;;;16.10;60.07;96117.16;5034723;28;20442;-86
2021/10/19 08:38:41;;;;;;;27.57;17.93;;;;;;;16.21;59.17;96123.34;5034544;28;20537;-86
2021/10/19 08:41:08;;;;;;;30.10;18.60;;;;;;;16.28;56.98;96124.47;4999654;28;20439;-85
2021/10/19 08:43:38;;;;;;;24.90;18.30;;;;;;;16.22;56.48;96127.66;5034603;28;20526;-85
2021/10/19 08:46:05;;;;;;;29.50;19.40;;;;;;;16.39;57.22;96127.00;5034614;28;20443;-86
2021/10/19 08:48:32;;;;;;;23.63;17.73;;;;;;;16.57;56.94;96120.09;5034539;28;20830;-86
2021/10/19 08:50:59;;;;;;;23.40;15.70;;;;;;;16.65;54.64;96127.34;5034152;28;20530;-85
2021/10/19 08:53:26;;;;;;;23.23;15.23;;;;;;;16.85;54.58;96122.94;5034472;28;20977;-86
2021/10/19 08:55:55;;;;;;;24.83;15.60;;;;;;;16.78;53.79;96121.84;5034326;28;20439;-86
2021/10/19 08:58:22;;;;;;;19.53;13.77;;;;;;;16.74;52.11;96126.53;5034180;28;20946;-86
2021/10/19 09:00:49;;;;;;;21.93;12.63;;;;;;;16.67;52.05;96120.97;5034430;28;20916;-86
2021/10/19 09:03:22;;;;;;;15.47;11.37;;;;;;;16.76;51.58;96123.75;5034526;28;20447;-86
2021/10/19 09:05:49;;;;;;;32.23;14.20;;;;;;;16.60;50.53;96117.16;5033973;28;20463;-85
2021/10/19 09:08:18;;;;;;;13.40;10.93;;;;;;;16.62;52.75;96112.56;5033735;28;20494;-86
2021/10/19 09:10:47;;;;;;;23.33;14.03;;;;;;;16.74;52.77;96105.34;5034069;28;20461;-86
2021/10/19 09:13:16;;;;;;;23.93;16.37;;;;;;;16.56;53.23;96109.63;5033798;28;20447;-86
2021/10/19 09:15:45;;;;;;;24.80;17.70;;;;;;;16.56;54.36;96101.66;5015022;28;20518;-86
2021/10/19 09:18:13;;;;;;;14.00;12.27;;;;;;;16.43;52.19;96105.41;5033908;28;20883;-86
2021/10/19 09:20:42;;;;;;;13.97;11.50;;;;;;;16.49;52.98;96098.75;5003651;28;20467;-85
2021/10/19 09:23:12;;;;;;;25.80;14.07;;;;;;;16.42;52.47;96087.00;5042747;28;20447;-86
2021/10/19 09:25:41;;;;;;;18.83;13.70;;;;;;;16.47;52.03;96098.00;5036833;28;20513;-86
2021/10/19 09:28:10;;;;;;;15.10;12.43;;;;;;;16.37;51.96;96097.16;5033954;28;20611;-86
2021/10/19 09:30:42;;;;;;;19.60;12.47;;;;;;;16.31;52.96;96097.72;5033932;28;20469;-86
2021/10/19 09:33:13;;;;;;;14.50;12.70;;;;;;;16.36;53.24;96095.50;5033723;28;20517;-86
2021/10/19 09:35:40;;;;;;;16.90;12.47;;;;;;;16.35;54.11;96088.50;5033573;28;20435;-86
2021/10/19 09:38:10;;;;;;;24.27;13.50;;;;;;;16.24;54.66;96086.81;5033297;28;20453;-85
2021/10/19 09:40:40;;;;;;;17.30;11.60;;;;;;;16.13;52.74;96083.44;5033274;28;20443;-86
2021/10/19 09:43:08;;;;;;;38.20;13.57;;;;;;;16.02;53.89;96073.78;5033389;28;20845;-86
2021/10/19 09:45:35;;;;;;;14.60;11.67;;;;;;;15.89;53.92;96070.53;5033355;28;20447;-86
2021/10/19 09:48:05;;;;;;;17.50;10.70;;;;;;;15.76;54.08;96076.88;5033154;28;20873;-86
2021/10/19 09:50:33;;;;;;;13.60;10.73;;;;;;;15.52;54.26;96080.78;5033150;28;20446;-86
2021/10/19 09:53:02;;;;;;;15.00;10.33;;;;;;;15.42;55.30;96068.34;5033010;28;20530;-86
2021/10/19 09:55:30;;;;;;;13.67;10.80;;;;;;;15.31;55.72;96065.75;5033357;28;20451;-86
2021/10/19 09:57:57;;;;;;;18.93;10.67;;;;;;;15.32;56.28;96062.13;5033456;28;20545;-86
2021/10/19 10:00:27;;;;;;;17.07;10.87;;;;;;;15.41;55.31;96060.53;5032997;28;20451;-86
2021/10/19 10:02:54;;;;;;;13.77;10.80;;;;;;;15.50;54.78;96065.88;5033025;28;20439;-85
2021/10/19 10:05:22;;;;;;;20.00;11.13;;;;;;;15.59;57.56;96056.31;5032747;28;20538;-86
2021/10/19 10:07:50;;;;;;;14.90;10.63;;;;;;;15.72;56.00;96058.78;5032816;28;20990;-86
2021/10/19 10:10:18;;;;;;;16.00;12.33;;;;;;;15.82;56.78;96051.69;4998233;28;20936;-86
2021/10/19 10:12:49;;;;;;;22.97;12.00;;;;;;;15.93;56.81;96051.63;5032768;28;20443;-86
2021/10/19 10:15:25;;;;;;;15.70;11.57;;;;;;;16.00;54.28;96052.75;5032722;28;20455;-86
2021/10/19 10:17:56;;;;;;;13.57;11.17;;;;;;;15.99;55.47;96053.72;4998270;28;20473;-86
2021/10/19 10:20:32;;;;;;;25.13;11.80;;;;;;;16.07;54.50;96047.75;5032510;28;20967;-86
2021/10/19 10:23:12;;;;;;;17.00;10.47;;;;;;;16.16;54.39;96043.44;5032695;28;20445;-86
2021/10/19 10:25:39;;;;;;;14.23;10.47;;;;;;;16.26;54.38;96044.31;5032927;28;20811;-86
2021/10/19 10:28:17;;;;;;;18.03;10.53;;;;;;;16.33;53.13;96040.13;5032520;28;20927;-86
2021/10/19 10:30:47;;;;;;;13.40;10.13;;;;;;;16.32;51.22;96047.25;5032939;28;20529;-86
2021/10/19 10:33:14;;;;;;;13.40;10.53;;;;;;;16.26;50.10;96047.78;5032730;28;20438;-86
2021/10/19 10:35:48;;;;;;;13.47;10.00;;;;;;;16.13;51.37;96028.66;5032438;28;20528;-86
2021/10/19 10:38:16;;;;;;;13.90;10.70;;;;;;;15.84;51.34;96025.94;5032381;28;20454;-86
2021/10/19 10:40:45;;;;;;;17.23;10.27;;;;;;;15.83;52.67;96020.78;4997827;28;20446;-86
2021/10/19 10:43:21;;;;;;;13.63;9.90;;;;;;;15.94;55.15;96016.22;5032626;28;21001;-86
2021/10/19 10:45:49;;;;;;;15.80;10.57;;;;;;;16.00;54.25;96020.13;5032413;28;20457;-86
2021/10/19 10:48:18;;;;;;;16.20;10.30;;;;;;;16.01;53.97;96012.06;5032406;28;20483;-86
2021/10/19 10:50:46;;;;;;;13.90;10.30;;;;;;;16.06;53.13;96006.34;5032460;28;20447;-86
2021/10/19 10:53:15;;;;;;;13.80;11.03;;;;;;;15.92;53.40;96007.59;5034128;28;20510;-86
2021/10/19 10:55:43;;;;;;;15.53;10.33;;;;;;;15.70;53.85;96002.50;5036500;28;20438;-86
2021/10/19 10:58:11;;;;;;;14.33;11.73;;;;;;;15.91;53.65;96013.00;5036847;28;20473;-85
2021/10/19 11:00:38;;;;;;;14.20;10.73;;;;;;;15.95;54.08;96001.19;5036270;28;20447;-86
2021/10/19 11:03:10;;;;;;;16.20;10.17;;;;;;;16.08;53.45;96009.69;5036536;28;20451;-86
2021/10/19 11:05:39;;;;;;;13.23;9.67;;;;;;;16.15;54.94;96002.03;5036200;28;20754;-86
2021/10/19 11:08:07;;;;;;;12.30;10.20;;;;;;;16.03;52.00;96010.09;5036494;28;20489;-86
2021/10/19 11:10:34;;;;;;;12.57;10.00;;;;;;;15.87;53.32;96003.66;5036231;28;20509;-86
2021/10/19 11:13:03;;;;;;;14.20;10.80;;;;;;;15.68;54.14;96007.09;5017641;28;20439;-86
2021/10/19 11:15:30;;;;;;;11.77;9.50;;;;;;;15.55;52.29;95998.50;5036086;28;20790;-86
2021/10/19 11:17:58;;;;;;;14.03;9.33;;;;;;;15.53;52.24;95990.69;5001143;28;20435;-86
2021/10/19 11:20:27;;;;;;;11.97;10.27;;;;;;;15.65;54.31;95994.97;5035739;28;20478;-86
2021/10/19 11:22:55;;;;;;;36.00;10.53;;;;;;;15.79;55.52;95994.56;5036259;28;20781;-86
2021/10/19 11:25:23;;;;;;;11.13;9.67;;;;;;;15.82;51.88;95988.16;5036049;28;20439;-86
2021/10/19 11:27:53;;;;;;;12.87;9.53;;;;;;;15.81;52.14;95989.16;5001157;28;20453;-86
2021/10/19 11:30:22;;;;;;;12.80;9.53;;;;;;;15.65;51.89;95984.38;5036396;28;20453;-86
2021/10/19 11:32:49;;;;;;;13.17;9.87;;;;;;;15.68;51.51;95977.97;5035592;28;20435;-86
2021/10/19 11:35:19;;;;;;;11.37;8.80;;;;;;;15.71;52.93;95980.34;5036184;28;20451;-86
2021/10/19 11:37:46;;;;;;;13.50;9.03;;;;;;;15.70;52.94;95976.88;5035965;28;20435;-86
2021/10/19 11:40:14;;;;;;;12.40;9.53;;;;;;;15.90;53.53;95980.41;5000784;28;20535;-86
2021/10/19 11:42:46;;;;;;;12.67;8.70;;;;;;;15.89;53.10;95978.72;5035732;28;20443;-86
2021/10/19 11:45:17;;;;;;;12.60;9.47;;;;;;;15.80;53.36;95974.25;5035650;28;20494;-86
2021/10/19 11:47:46;;;;;;;24.27;9.90;;;;;;;15.80;53.11;95971.59;5035677;28;20525;-86
2021/10/19 11:50:16;;;;;;;15.43;8.70;;;;;;;15.67;52.36;95966.56;5035715;28;20443;-86